AUA517 LICJ-LOWW
Flight info
| Callsign | AUA517 |
|---|---|
| Flight time | 1h 35m |
| Altitude | 38000 |
| Route | ROSAS DCT AMANO DCT VAPUP/N0434F390 DCT NIVES DCT ZAG/N0432F380 DCT OBUTI OBUTI2W |
| Aircraft | A320/M-SDE3FGHIRWY/LB1 |
Departure
| Time | 2026-04-25 16:03 |
|---|---|
| Airport | Falcone–Borsellino Airport (LICJ) |
Arrival
| Time | 2026-04-25 17:39 |
|---|---|
| Airport | Vienna International Airport (LOWW) |
| Time | Latitude | Longitude | Altitude | Speed | Heading |
|---|---|---|---|---|---|
| 2026-04-25 15:25 | 38.18600 | 13.10725 | 58 ft | 0 kts | 338° |
| 2026-04-25 15:48 | 38.18585 | 13.10732 | 58 ft | 4 kts | 338° |
| 2026-04-25 15:49 | 38.18560 | 13.10745 | 58 ft | 3 kts | 338° |
| 2026-04-25 15:49 | 38.18540 | 13.10755 | 58 ft | 4 kts | 356° |
| 2026-04-25 15:49 | 38.18518 | 13.10747 | 59 ft | 4 kts | 51° |
| 2026-04-25 15:49 | 38.18506 | 13.10720 | 61 ft | 4 kts | 66° |
| 2026-04-25 15:50 | 38.18499 | 13.10699 | 59 ft | 3 kts | 67° |
| 2026-04-25 15:50 | 38.18498 | 13.10696 | 60 ft | 0 kts | 67° |
| 2026-04-25 15:55 | 38.18500 | 13.10700 | 65 ft | 2 kts | 67° |
| 2026-04-25 15:55 | 38.18508 | 13.10740 | 62 ft | 7 kts | 88° |
| 2026-04-25 15:55 | 38.18485 | 13.10818 | 60 ft | 11 kts | 112° |
| 2026-04-25 15:55 | 38.18466 | 13.10899 | 65 ft | 9 kts | 98° |
| 2026-04-25 15:56 | 38.18427 | 13.10948 | 65 ft | 8 kts | 175° |
| 2026-04-25 15:56 | 38.18389 | 13.10888 | 65 ft | 12 kts | 246° |
| 2026-04-25 15:56 | 38.18353 | 13.10777 | 64 ft | 14 kts | 247° |
| 2026-04-25 15:56 | 38.18318 | 13.10671 | 59 ft | 13 kts | 247° |
| 2026-04-25 15:57 | 38.18285 | 13.10573 | 59 ft | 11 kts | 246° |
| 2026-04-25 15:57 | 38.18254 | 13.10484 | 64 ft | 11 kts | 246° |
| 2026-04-25 15:57 | 38.18225 | 13.10403 | 63 ft | 10 kts | 246° |
| 2026-04-25 15:57 | 38.18200 | 13.10329 | 62 ft | 9 kts | 248° |
| 2026-04-25 15:58 | 38.18178 | 13.10263 | 62 ft | 8 kts | 248° |
| 2026-04-25 15:58 | 38.18155 | 13.10191 | 61 ft | 13 kts | 248° |
| 2026-04-25 15:58 | 38.18116 | 13.10074 | 62 ft | 14 kts | 246° |
| 2026-04-25 15:58 | 38.18078 | 13.09962 | 61 ft | 13 kts | 246° |
| 2026-04-25 15:59 | 38.18043 | 13.09857 | 62 ft | 12 kts | 246° |
| 2026-04-25 15:59 | 38.18002 | 13.09737 | 61 ft | 17 kts | 247° |
| 2026-04-25 15:59 | 38.17959 | 13.09605 | 61 ft | 16 kts | 247° |
| 2026-04-25 15:59 | 38.17918 | 13.09484 | 65 ft | 14 kts | 246° |
| 2026-04-25 16:00 | 38.17882 | 13.09379 | 63 ft | 12 kts | 246° |
| 2026-04-25 16:00 | 38.17871 | 13.09349 | 65 ft | 10 kts | 246° |
| 2026-04-25 16:00 | 38.17817 | 13.09188 | 68 ft | 18 kts | 247° |
| 2026-04-25 16:00 | 38.17762 | 13.09018 | 64 ft | 17 kts | 246° |
| 2026-04-25 16:01 | 38.17695 | 13.08912 | 63 ft | 15 kts | 218° |
| 2026-04-25 16:01 | 38.17618 | 13.08837 | 67 ft | 13 kts | 217° |
| 2026-04-25 16:01 | 38.17553 | 13.08773 | 65 ft | 11 kts | 217° |
| 2026-04-25 16:01 | 38.17496 | 13.08762 | 63 ft | 7 kts | 147° |
| 2026-04-25 16:02 | 38.17484 | 13.08808 | 65 ft | 5 kts | 80° |
| 2026-04-25 16:02 | 38.17501 | 13.08855 | 66 ft | 7 kts | 67° |
| 2026-04-25 16:02 | 38.17563 | 13.09040 | 66 ft | 55 kts | 66° |
| 2026-04-25 16:02 | 38.17807 | 13.09764 | 68 ft | 117 kts | 67° |
| 2026-04-25 16:03 | 38.18179 | 13.10876 | 114 ft | 156 kts | 64° |
| 2026-04-25 16:03 | 38.18613 | 13.12140 | 769 ft | 155 kts | 63° |
| 2026-04-25 16:03 | 38.19067 | 13.13417 | 1315 ft | 166 kts | 63° |
| 2026-04-25 16:03 | 38.19566 | 13.14809 | 1792 ft | 182 kts | 65° |
| 2026-04-25 16:04 | 38.20125 | 13.16354 | 2190 ft | 202 kts | 65° |
| 2026-04-25 16:04 | 38.20719 | 13.18083 | 2570 ft | 226 kts | 67° |
| 2026-04-25 16:04 | 38.21670 | 13.19798 | 3077 ft | 250 kts | 39° |
| 2026-04-25 16:04 | 38.23244 | 13.20839 | 3935 ft | 260 kts | 24° |
| 2026-04-25 16:05 | 38.24922 | 13.21739 | 4911 ft | 264 kts | 24° |
| 2026-04-25 16:05 | 38.26632 | 13.22643 | 5865 ft | 268 kts | 24° |
| 2026-04-25 16:05 | 38.30115 | 13.24485 | 7734 ft | 275 kts | 23° |
| 2026-04-25 16:06 | 38.31288 | 13.25104 | 8361 ft | 276 kts | 23° |
| 2026-04-25 16:06 | 38.33068 | 13.26045 | 9327 ft | 278 kts | 23° |
| 2026-04-25 16:06 | 38.34866 | 13.27001 | 10229 ft | 282 kts | 23° |
| 2026-04-25 16:06 | 38.36737 | 13.27996 | 10652 ft | 303 kts | 23° |
| 2026-04-25 16:07 | 38.38747 | 13.29067 | 11057 ft | 321 kts | 23° |
| 2026-04-25 16:07 | 38.40127 | 13.29803 | 11510 ft | 326 kts | 23° |
| 2026-04-25 16:07 | 38.42957 | 13.31310 | 12545 ft | 333 kts | 23° |
| 2026-04-25 16:07 | 38.45102 | 13.32453 | 13345 ft | 336 kts | 23° |
| 2026-04-25 16:08 | 38.47278 | 13.33615 | 14106 ft | 341 kts | 23° |
| 2026-04-25 16:08 | 38.49481 | 13.34794 | 14794 ft | 345 kts | 23° |
| 2026-04-25 16:08 | 38.51672 | 13.35967 | 15479 ft | 348 kts | 23° |
| 2026-04-25 16:08 | 38.53922 | 13.37175 | 16156 ft | 352 kts | 23° |
| 2026-04-25 16:09 | 38.56190 | 13.38394 | 16831 ft | 356 kts | 23° |
| 2026-04-25 16:09 | 38.58486 | 13.39629 | 17508 ft | 360 kts | 24° |
| 2026-04-25 16:09 | 38.60135 | 13.40515 | 17966 ft | 363 kts | 23° |
| 2026-04-25 16:09 | 38.62480 | 13.41774 | 18587 ft | 367 kts | 24° |
| 2026-04-25 16:10 | 38.64845 | 13.43040 | 19172 ft | 370 kts | 23° |
| 2026-04-25 16:10 | 38.67236 | 13.44319 | 19751 ft | 374 kts | 23° |
| 2026-04-25 16:10 | 38.69642 | 13.45611 | 20346 ft | 377 kts | 23° |
| 2026-04-25 16:10 | 38.72069 | 13.46922 | 20923 ft | 381 kts | 23° |
| 2026-04-25 16:11 | 38.74521 | 13.48248 | 21510 ft | 384 kts | 24° |
| 2026-04-25 16:11 | 38.76989 | 13.49581 | 22088 ft | 387 kts | 23° |
| 2026-04-25 16:11 | 38.79482 | 13.50928 | 22715 ft | 389 kts | 23° |
| 2026-04-25 16:11 | 38.81956 | 13.52266 | 23313 ft | 392 kts | 22° |
| 2026-04-25 16:12 | 38.84481 | 13.53632 | 23824 ft | 396 kts | 23° |
| 2026-04-25 16:12 | 38.87050 | 13.54955 | 24278 ft | 399 kts | 21° |
| 2026-04-25 16:12 | 38.89674 | 13.56177 | 24751 ft | 402 kts | 19° |
| 2026-04-25 16:12 | 38.91429 | 13.56949 | 25050 ft | 404 kts | 19° |
| 2026-04-25 16:13 | 38.95009 | 13.58480 | 25658 ft | 407 kts | 18° |
| 2026-04-25 16:13 | 38.97702 | 13.59630 | 26085 ft | 410 kts | 19° |
| 2026-04-25 16:13 | 39.00417 | 13.60808 | 26511 ft | 412 kts | 19° |
| 2026-04-25 16:13 | 39.03131 | 13.62013 | 26945 ft | 414 kts | 20° |
| 2026-04-25 16:14 | 39.05864 | 13.63238 | 27338 ft | 417 kts | 20° |
| 2026-04-25 16:14 | 39.08607 | 13.64475 | 27750 ft | 419 kts | 20° |
| 2026-04-25 16:14 | 39.11373 | 13.65726 | 28128 ft | 422 kts | 20° |
| 2026-04-25 16:14 | 39.14150 | 13.66980 | 28527 ft | 425 kts | 20° |
| 2026-04-25 16:15 | 39.16907 | 13.68224 | 28897 ft | 427 kts | 20° |
| 2026-04-25 16:15 | 39.19727 | 13.69495 | 29261 ft | 430 kts | 20° |
| 2026-04-25 16:15 | 39.22557 | 13.70774 | 29622 ft | 432 kts | 20° |
| 2026-04-25 16:15 | 39.25407 | 13.72061 | 29951 ft | 436 kts | 20° |
| 2026-04-25 16:16 | 39.28279 | 13.73357 | 30273 ft | 438 kts | 20° |
| 2026-04-25 16:16 | 39.31167 | 13.74662 | 30553 ft | 441 kts | 20° |
| 2026-04-25 16:16 | 39.34064 | 13.75972 | 30837 ft | 443 kts | 20° |
| 2026-04-25 16:16 | 39.36975 | 13.77294 | 31113 ft | 445 kts | 20° |
| 2026-04-25 16:17 | 39.39901 | 13.78627 | 31379 ft | 447 kts | 20° |
| 2026-04-25 16:17 | 39.42841 | 13.79959 | 31643 ft | 449 kts | 19° |
| 2026-04-25 16:17 | 39.45820 | 13.81191 | 31917 ft | 450 kts | 18° |
| 2026-04-25 16:17 | 39.48789 | 13.82295 | 32271 ft | 450 kts | 17° |
| 2026-04-25 16:18 | 39.51807 | 13.83348 | 32648 ft | 449 kts | 17° |
| 2026-04-25 16:18 | 39.52828 | 13.83698 | 32773 ft | 448 kts | 16° |
| 2026-04-25 16:18 | 39.57835 | 13.85424 | 33385 ft | 447 kts | 16° |
| 2026-04-25 16:18 | 39.60833 | 13.86490 | 33780 ft | 446 kts | 17° |
| 2026-04-25 16:19 | 39.63816 | 13.87576 | 34169 ft | 445 kts | 17° |
| 2026-04-25 16:19 | 39.66790 | 13.88674 | 34486 ft | 443 kts | 17° |
| 2026-04-25 16:19 | 39.69751 | 13.89776 | 34807 ft | 442 kts | 17° |
| 2026-04-25 16:20 | 39.75650 | 13.91972 | 35430 ft | 440 kts | 17° |
| 2026-04-25 16:20 | 39.78592 | 13.93068 | 35731 ft | 439 kts | 17° |
| 2026-04-25 16:20 | 39.84449 | 13.95248 | 36311 ft | 437 kts | 17° |
| 2026-04-25 16:21 | 39.87334 | 13.96320 | 36582 ft | 436 kts | 17° |
| 2026-04-25 16:21 | 39.90246 | 13.97398 | 36864 ft | 435 kts | 17° |
| 2026-04-25 16:21 | 39.93153 | 13.98474 | 37113 ft | 434 kts | 17° |
| 2026-04-25 16:21 | 39.96053 | 13.99552 | 37379 ft | 433 kts | 17° |
| 2026-04-25 16:22 | 39.98948 | 14.00629 | 37641 ft | 432 kts | 17° |
| 2026-04-25 16:22 | 40.01833 | 14.01703 | 37880 ft | 431 kts | 17° |
| 2026-04-25 16:22 | 40.04720 | 14.02781 | 38071 ft | 431 kts | 17° |
| 2026-04-25 16:23 | 40.10481 | 14.04931 | 38109 ft | 430 kts | 17° |
| 2026-04-25 16:23 | 40.16242 | 14.07090 | 38103 ft | 431 kts | 17° |
| 2026-04-25 16:24 | 40.21964 | 14.09236 | 38103 ft | 431 kts | 17° |
| 2026-04-25 16:24 | 40.27714 | 14.11387 | 38095 ft | 431 kts | 17° |
| 2026-04-25 16:25 | 40.33500 | 14.13561 | 38100 ft | 432 kts | 17° |
| 2026-04-25 16:25 | 40.39281 | 14.15748 | 38105 ft | 432 kts | 17° |
| 2026-04-25 16:26 | 40.45063 | 14.17935 | 38103 ft | 432 kts | 18° |
| 2026-04-25 16:26 | 40.50808 | 14.20104 | 38098 ft | 432 kts | 17° |
| 2026-04-25 16:27 | 40.56590 | 14.22288 | 38091 ft | 433 kts | 17° |
| 2026-04-25 16:27 | 40.62385 | 14.24489 | 38090 ft | 433 kts | 17° |
| 2026-04-25 16:28 | 40.68171 | 14.26688 | 38081 ft | 433 kts | 17° |
| 2026-04-25 16:28 | 40.73962 | 14.28889 | 38081 ft | 433 kts | 17° |
| 2026-04-25 16:29 | 40.79767 | 14.31101 | 38084 ft | 434 kts | 17° |
| 2026-04-25 16:29 | 40.85567 | 14.33317 | 38088 ft | 434 kts | 17° |
| 2026-04-25 16:30 | 40.91375 | 14.35541 | 38086 ft | 435 kts | 18° |
| 2026-04-25 16:30 | 40.97178 | 14.37773 | 38089 ft | 435 kts | 18° |
| 2026-04-25 16:31 | 41.02955 | 14.39997 | 38092 ft | 435 kts | 18° |
| 2026-04-25 16:31 | 41.08766 | 14.42229 | 38090 ft | 435 kts | 18° |
| 2026-04-25 16:32 | 41.14575 | 14.44467 | 38082 ft | 435 kts | 18° |
| 2026-04-25 16:32 | 41.20387 | 14.46717 | 38079 ft | 435 kts | 17° |
| 2026-04-25 16:33 | 41.26198 | 14.48962 | 38077 ft | 435 kts | 18° |
| 2026-04-25 16:33 | 41.31967 | 14.51207 | 38063 ft | 435 kts | 17° |
| 2026-04-25 16:34 | 41.37776 | 14.53471 | 38064 ft | 435 kts | 17° |
| 2026-04-25 16:34 | 41.43587 | 14.55725 | 38055 ft | 435 kts | 17° |
| 2026-04-25 16:35 | 41.49399 | 14.57983 | 38056 ft | 435 kts | 17° |
| 2026-04-25 16:35 | 41.55207 | 14.60254 | 38054 ft | 435 kts | 17° |
| 2026-04-25 16:36 | 41.61015 | 14.62534 | 38050 ft | 435 kts | 17° |
| 2026-04-25 16:36 | 41.66827 | 14.64812 | 38047 ft | 435 kts | 17° |
| 2026-04-25 16:37 | 41.72643 | 14.67095 | 38041 ft | 436 kts | 17° |
| 2026-04-25 16:37 | 41.78462 | 14.69383 | 38039 ft | 436 kts | 17° |
| 2026-04-25 16:38 | 41.84244 | 14.71665 | 38037 ft | 436 kts | 17° |
| 2026-04-25 16:38 | 41.90066 | 14.73973 | 38037 ft | 436 kts | 17° |
| 2026-04-25 16:39 | 41.95883 | 14.76281 | 38035 ft | 436 kts | 17° |
| 2026-04-25 16:39 | 42.01701 | 14.78586 | 38034 ft | 436 kts | 17° |
| 2026-04-25 16:40 | 42.07525 | 14.80899 | 38033 ft | 436 kts | 16° |
| 2026-04-25 16:40 | 42.13314 | 14.83205 | 38030 ft | 437 kts | 16° |
| 2026-04-25 16:41 | 42.19155 | 14.85537 | 38038 ft | 438 kts | 16° |
| 2026-04-25 16:41 | 42.27933 | 14.89036 | 38044 ft | 438 kts | 16° |
| 2026-04-25 16:42 | 42.33776 | 14.91385 | 38046 ft | 438 kts | 16° |
| 2026-04-25 16:42 | 42.39613 | 14.93736 | 38053 ft | 437 kts | 16° |
| 2026-04-25 16:43 | 42.45447 | 14.96085 | 38051 ft | 437 kts | 15° |
| 2026-04-25 16:43 | 42.51235 | 14.98418 | 38049 ft | 437 kts | 16° |
| 2026-04-25 16:44 | 42.57059 | 15.00765 | 38047 ft | 437 kts | 16° |
| 2026-04-25 16:44 | 42.62886 | 15.03122 | 38047 ft | 437 kts | 16° |
| 2026-04-25 16:45 | 42.68714 | 15.05487 | 38053 ft | 437 kts | 15° |
| 2026-04-25 16:45 | 42.74542 | 15.07855 | 38046 ft | 437 kts | 15° |
| 2026-04-25 16:46 | 42.80366 | 15.10228 | 38048 ft | 437 kts | 15° |
| 2026-04-25 16:46 | 42.84266 | 15.11822 | 38050 ft | 437 kts | 15° |
| 2026-04-25 16:47 | 42.92028 | 15.14994 | 38048 ft | 437 kts | 15° |
| 2026-04-25 16:47 | 42.97823 | 15.17358 | 38048 ft | 437 kts | 15° |
| 2026-04-25 16:48 | 43.03653 | 15.19753 | 38055 ft | 437 kts | 15° |
| 2026-04-25 16:48 | 43.09514 | 15.21978 | 38051 ft | 437 kts | 12° |
| 2026-04-25 16:49 | 43.15449 | 15.23775 | 38046 ft | 437 kts | 10° |
| 2026-04-25 16:49 | 43.21400 | 15.25504 | 38047 ft | 437 kts | 10° |
| 2026-04-25 16:50 | 43.27333 | 15.27324 | 38042 ft | 437 kts | 11° |
| 2026-04-25 16:50 | 43.33226 | 15.29191 | 38047 ft | 437 kts | 11° |
| 2026-04-25 16:51 | 43.39152 | 15.31079 | 38051 ft | 437 kts | 11° |
| 2026-04-25 16:51 | 43.43114 | 15.32341 | 38049 ft | 437 kts | 11° |
| 2026-04-25 16:52 | 43.50999 | 15.34834 | 38040 ft | 437 kts | 11° |
| 2026-04-25 16:52 | 43.56922 | 15.36705 | 38042 ft | 437 kts | 11° |
| 2026-04-25 16:53 | 43.65802 | 15.39515 | 38042 ft | 437 kts | 10° |
| 2026-04-25 16:54 | 43.71724 | 15.41406 | 38040 ft | 436 kts | 10° |
| 2026-04-25 16:54 | 43.77641 | 15.43297 | 38034 ft | 436 kts | 10° |
| 2026-04-25 16:55 | 43.83516 | 15.45180 | 38032 ft | 436 kts | 10° |
| 2026-04-25 16:55 | 43.89430 | 15.47076 | 38033 ft | 436 kts | 10° |
| 2026-04-25 16:56 | 43.95348 | 15.48970 | 38051 ft | 437 kts | 10° |
| 2026-04-25 16:56 | 43.98315 | 15.49905 | 38235 ft | 437 kts | 9° |
| 2026-04-25 16:56 | 44.01278 | 15.50830 | 38485 ft | 437 kts | 9° |
| 2026-04-25 16:56 | 44.04244 | 15.51752 | 38716 ft | 436 kts | 9° |
| 2026-04-25 16:57 | 44.07198 | 15.52667 | 38909 ft | 435 kts | 9° |
| 2026-04-25 16:57 | 44.13111 | 15.54524 | 39056 ft | 436 kts | 9° |
| 2026-04-25 16:58 | 44.19020 | 15.56379 | 39027 ft | 435 kts | 9° |
| 2026-04-25 16:58 | 44.24924 | 15.58215 | 39024 ft | 435 kts | 9° |
| 2026-04-25 16:59 | 44.30825 | 15.60053 | 39017 ft | 434 kts | 9° |
| 2026-04-25 16:59 | 44.36718 | 15.61895 | 39018 ft | 434 kts | 9° |
| 2026-04-25 17:00 | 44.42573 | 15.63736 | 39017 ft | 434 kts | 9° |
| 2026-04-25 17:00 | 44.48468 | 15.65590 | 39017 ft | 434 kts | 9° |
| 2026-04-25 17:01 | 44.54357 | 15.67449 | 39031 ft | 434 kts | 8° |
| 2026-04-25 17:01 | 44.60253 | 15.69323 | 39028 ft | 434 kts | 8° |
| 2026-04-25 17:02 | 44.66143 | 15.71197 | 39020 ft | 434 kts | 9° |
| 2026-04-25 17:02 | 44.72029 | 15.73074 | 39022 ft | 434 kts | 8° |
| 2026-04-25 17:03 | 44.77920 | 15.74941 | 39012 ft | 434 kts | 8° |
| 2026-04-25 17:03 | 44.83767 | 15.76804 | 38999 ft | 433 kts | 8° |
| 2026-04-25 17:04 | 44.89652 | 15.78688 | 39002 ft | 434 kts | 8° |
| 2026-04-25 17:04 | 44.95549 | 15.80574 | 38992 ft | 435 kts | 8° |
| 2026-04-25 17:05 | 45.01448 | 15.82463 | 38985 ft | 435 kts | 8° |
| 2026-04-25 17:05 | 45.10307 | 15.85324 | 38987 ft | 435 kts | 8° |
| 2026-04-25 17:06 | 45.16218 | 15.87226 | 38985 ft | 435 kts | 8° |
| 2026-04-25 17:06 | 45.22089 | 15.89121 | 38978 ft | 436 kts | 8° |
| 2026-04-25 17:07 | 45.28006 | 15.91042 | 38988 ft | 436 kts | 7° |
| 2026-04-25 17:07 | 45.33919 | 15.92960 | 38979 ft | 436 kts | 7° |
| 2026-04-25 17:08 | 45.39830 | 15.94893 | 38975 ft | 436 kts | 7° |
| 2026-04-25 17:08 | 45.45749 | 15.96823 | 38990 ft | 436 kts | 7° |
| 2026-04-25 17:09 | 45.50659 | 15.98422 | 38987 ft | 436 kts | 7° |
| 2026-04-25 17:09 | 45.56576 | 16.00357 | 38947 ft | 437 kts | 7° |
| 2026-04-25 17:10 | 45.59537 | 16.01328 | 38718 ft | 436 kts | 7° |
| 2026-04-25 17:10 | 45.62497 | 16.02302 | 38324 ft | 436 kts | 7° |
| 2026-04-25 17:10 | 45.65457 | 16.03276 | 37905 ft | 436 kts | 7° |
| 2026-04-25 17:10 | 45.68419 | 16.04254 | 37518 ft | 437 kts | 7° |
| 2026-04-25 17:11 | 45.71390 | 16.05236 | 37137 ft | 438 kts | 7° |
| 2026-04-25 17:11 | 45.74360 | 16.06219 | 36772 ft | 439 kts | 7° |
| 2026-04-25 17:11 | 45.77344 | 16.07205 | 36405 ft | 440 kts | 7° |
| 2026-04-25 17:11 | 45.80331 | 16.08188 | 36045 ft | 441 kts | 7° |
| 2026-04-25 17:12 | 45.83321 | 16.09173 | 35702 ft | 440 kts | 7° |
| 2026-04-25 17:12 | 45.86303 | 16.10160 | 35350 ft | 439 kts | 7° |
| 2026-04-25 17:12 | 45.89269 | 16.11149 | 35002 ft | 436 kts | 7° |
| 2026-04-25 17:12 | 45.92176 | 16.12121 | 34665 ft | 434 kts | 8° |
| 2026-04-25 17:13 | 45.95115 | 16.13102 | 34328 ft | 432 kts | 8° |
| 2026-04-25 17:13 | 45.97091 | 16.13758 | 34103 ft | 431 kts | 7° |
| 2026-04-25 17:13 | 46.00983 | 16.15052 | 33609 ft | 428 kts | 8° |
| 2026-04-25 17:13 | 46.03872 | 16.16013 | 33244 ft | 425 kts | 7° |
| 2026-04-25 17:14 | 46.06715 | 16.16958 | 32875 ft | 423 kts | 7° |
| 2026-04-25 17:14 | 46.09572 | 16.17912 | 32504 ft | 421 kts | 8° |
| 2026-04-25 17:14 | 46.12413 | 16.18865 | 32140 ft | 418 kts | 8° |
| 2026-04-25 17:14 | 46.15243 | 16.19815 | 31765 ft | 416 kts | 8° |
| 2026-04-25 17:15 | 46.18053 | 16.20755 | 31424 ft | 413 kts | 8° |
| 2026-04-25 17:15 | 46.20844 | 16.21686 | 31074 ft | 411 kts | 8° |
| 2026-04-25 17:15 | 46.23621 | 16.22615 | 30731 ft | 408 kts | 7° |
| 2026-04-25 17:15 | 46.26384 | 16.23545 | 30405 ft | 406 kts | 8° |
| 2026-04-25 17:16 | 46.29127 | 16.24475 | 30076 ft | 404 kts | 8° |
| 2026-04-25 17:16 | 46.31853 | 16.25399 | 29853 ft | 402 kts | 8° |
| 2026-04-25 17:16 | 46.34579 | 16.26306 | 29625 ft | 400 kts | 6° |
| 2026-04-25 17:16 | 46.37312 | 16.26821 | 29410 ft | 393 kts | 358° |
| 2026-04-25 17:17 | 46.40028 | 16.26796 | 29172 ft | 387 kts | 350° |
| 2026-04-25 17:17 | 46.42678 | 16.26274 | 28965 ft | 383 kts | 345° |
| 2026-04-25 17:17 | 46.45271 | 16.25648 | 28749 ft | 382 kts | 345° |
| 2026-04-25 17:17 | 46.47896 | 16.25022 | 28529 ft | 381 kts | 345° |
| 2026-04-25 17:18 | 46.50509 | 16.24403 | 28312 ft | 380 kts | 346° |
| 2026-04-25 17:18 | 46.53115 | 16.23789 | 28096 ft | 379 kts | 346° |
| 2026-04-25 17:18 | 46.55714 | 16.23179 | 27883 ft | 378 kts | 346° |
| 2026-04-25 17:18 | 46.58306 | 16.22570 | 27665 ft | 377 kts | 346° |
| 2026-04-25 17:19 | 46.60891 | 16.21959 | 27462 ft | 376 kts | 346° |
| 2026-04-25 17:19 | 46.63478 | 16.21342 | 26933 ft | 377 kts | 346° |
| 2026-04-25 17:19 | 46.66063 | 16.20726 | 26395 ft | 376 kts | 346° |
| 2026-04-25 17:19 | 46.68643 | 16.20111 | 25848 ft | 376 kts | 346° |
| 2026-04-25 17:20 | 46.71225 | 16.19495 | 25307 ft | 375 kts | 346° |
| 2026-04-25 17:20 | 46.73796 | 16.18879 | 24779 ft | 375 kts | 346° |
| 2026-04-25 17:20 | 46.76333 | 16.18268 | 24266 ft | 374 kts | 346° |
| 2026-04-25 17:20 | 46.78899 | 16.17653 | 23759 ft | 373 kts | 346° |
| 2026-04-25 17:21 | 46.81451 | 16.17045 | 23196 ft | 372 kts | 346° |
| 2026-04-25 17:21 | 46.83998 | 16.16438 | 22691 ft | 369 kts | 346° |
| 2026-04-25 17:21 | 46.86509 | 16.15837 | 22317 ft | 363 kts | 347° |
| 2026-04-25 17:21 | 46.88975 | 16.15243 | 21946 ft | 356 kts | 346° |
| 2026-04-25 17:22 | 46.91406 | 16.14655 | 21581 ft | 351 kts | 346° |
| 2026-04-25 17:22 | 46.92993 | 16.14273 | 21332 ft | 347 kts | 346° |
| 2026-04-25 17:22 | 46.96156 | 16.13512 | 20861 ft | 341 kts | 347° |
| 2026-04-25 17:22 | 46.98492 | 16.12952 | 20509 ft | 338 kts | 347° |
| 2026-04-25 17:23 | 47.00839 | 16.12780 | 20158 ft | 342 kts | 3° |
| 2026-04-25 17:23 | 47.03147 | 16.13695 | 19759 ft | 346 kts | 17° |
| 2026-04-25 17:23 | 47.05391 | 16.14949 | 19322 ft | 345 kts | 17° |
| 2026-04-25 17:23 | 47.07630 | 16.16232 | 18908 ft | 345 kts | 18° |
| 2026-04-25 17:24 | 47.09863 | 16.17527 | 18486 ft | 344 kts | 18° |
| 2026-04-25 17:24 | 47.12083 | 16.18818 | 18024 ft | 343 kts | 18° |
| 2026-04-25 17:24 | 47.14269 | 16.20087 | 17559 ft | 342 kts | 18° |
| 2026-04-25 17:24 | 47.16485 | 16.21368 | 17082 ft | 341 kts | 18° |
| 2026-04-25 17:25 | 47.18697 | 16.22641 | 16624 ft | 341 kts | 18° |
| 2026-04-25 17:25 | 47.20898 | 16.23909 | 16167 ft | 340 kts | 18° |
| 2026-04-25 17:25 | 47.23099 | 16.25176 | 15714 ft | 339 kts | 18° |
| 2026-04-25 17:25 | 47.25293 | 16.26439 | 15268 ft | 338 kts | 18° |
| 2026-04-25 17:26 | 47.27456 | 16.27685 | 14826 ft | 327 kts | 17° |
| 2026-04-25 17:26 | 47.29538 | 16.28890 | 14410 ft | 317 kts | 17° |
| 2026-04-25 17:26 | 47.31587 | 16.30074 | 13987 ft | 317 kts | 17° |
| 2026-04-25 17:26 | 47.33646 | 16.31264 | 13536 ft | 317 kts | 17° |
| 2026-04-25 17:27 | 47.35664 | 16.32430 | 13055 ft | 311 kts | 17° |
| 2026-04-25 17:27 | 47.37656 | 16.33585 | 12590 ft | 306 kts | 17° |
| 2026-04-25 17:27 | 47.39639 | 16.34731 | 12154 ft | 306 kts | 17° |
| 2026-04-25 17:27 | 47.40950 | 16.35488 | 11885 ft | 305 kts | 17° |
| 2026-04-25 17:28 | 47.43580 | 16.37012 | 11348 ft | 303 kts | 17° |
| 2026-04-25 17:28 | 47.45538 | 16.38149 | 10946 ft | 302 kts | 17° |
| 2026-04-25 17:28 | 47.47486 | 16.39282 | 10544 ft | 301 kts | 17° |
| 2026-04-25 17:28 | 47.49440 | 16.40420 | 10087 ft | 302 kts | 18° |
| 2026-04-25 17:29 | 47.51401 | 16.41561 | 9603 ft | 303 kts | 18° |
| 2026-04-25 17:29 | 47.53343 | 16.42698 | 9105 ft | 295 kts | 18° |
| 2026-04-25 17:29 | 47.55226 | 16.43803 | 8613 ft | 288 kts | 18° |
| 2026-04-25 17:29 | 47.57081 | 16.44890 | 8127 ft | 285 kts | 18° |
| 2026-04-25 17:30 | 47.58922 | 16.45966 | 7693 ft | 284 kts | 18° |
| 2026-04-25 17:30 | 47.60730 | 16.47022 | 7344 ft | 281 kts | 17° |
| 2026-04-25 17:30 | 47.62545 | 16.48084 | 7001 ft | 280 kts | 18° |
| 2026-04-25 17:30 | 47.64351 | 16.49139 | 6665 ft | 278 kts | 17° |
| 2026-04-25 17:31 | 47.66137 | 16.50184 | 6326 ft | 276 kts | 17° |
| 2026-04-25 17:31 | 47.67918 | 16.51230 | 6035 ft | 274 kts | 18° |
| 2026-04-25 17:31 | 47.69688 | 16.52275 | 6003 ft | 274 kts | 17° |
| 2026-04-25 17:31 | 47.71465 | 16.53317 | 6005 ft | 275 kts | 17° |
| 2026-04-25 17:32 | 47.73201 | 16.54337 | 6004 ft | 259 kts | 17° |
| 2026-04-25 17:32 | 47.74825 | 16.55301 | 6005 ft | 245 kts | 17° |
| 2026-04-25 17:32 | 47.76402 | 16.56233 | 5892 ft | 245 kts | 17° |
| 2026-04-25 17:32 | 47.78020 | 16.57180 | 5298 ft | 250 kts | 17° |
| 2026-04-25 17:33 | 47.79597 | 16.58110 | 4969 ft | 239 kts | 16° |
| 2026-04-25 17:33 | 47.81135 | 16.59017 | 4685 ft | 236 kts | 16° |
| 2026-04-25 17:33 | 47.82664 | 16.59919 | 4552 ft | 237 kts | 17° |
| 2026-04-25 17:33 | 47.84170 | 16.60805 | 4440 ft | 235 kts | 16° |
| 2026-04-25 17:34 | 47.85693 | 16.61704 | 4290 ft | 235 kts | 17° |
| 2026-04-25 17:34 | 47.87211 | 16.62603 | 4114 ft | 234 kts | 19° |
| 2026-04-25 17:34 | 47.88708 | 16.63490 | 3932 ft | 231 kts | 18° |
| 2026-04-25 17:34 | 47.90203 | 16.64372 | 3762 ft | 231 kts | 17° |
| 2026-04-25 17:35 | 47.91698 | 16.65249 | 3581 ft | 231 kts | 15° |
| 2026-04-25 17:35 | 47.93259 | 16.65591 | 3409 ft | 225 kts | 352° |
| 2026-04-25 17:35 | 47.94763 | 16.65082 | 3268 ft | 221 kts | 342° |
| 2026-04-25 17:35 | 47.96248 | 16.64452 | 3097 ft | 221 kts | 341° |
| 2026-04-25 17:36 | 47.97721 | 16.63829 | 2824 ft | 219 kts | 340° |
| 2026-04-25 17:36 | 47.99163 | 16.63224 | 2538 ft | 209 kts | 340° |
| 2026-04-25 17:36 | 48.00523 | 16.62654 | 2285 ft | 197 kts | 340° |
| 2026-04-25 17:36 | 48.01808 | 16.62113 | 2027 ft | 187 kts | 339° |
| 2026-04-25 17:37 | 48.03010 | 16.61608 | 1796 ft | 173 kts | 338° |
| 2026-04-25 17:37 | 48.04136 | 16.61134 | 1551 ft | 163 kts | 338° |
| 2026-04-25 17:37 | 48.05172 | 16.60697 | 1346 ft | 147 kts | 339° |
| 2026-04-25 17:37 | 48.06098 | 16.60307 | 1183 ft | 134 kts | 339° |
| 2026-04-25 17:38 | 48.06983 | 16.59931 | 1011 ft | 131 kts | 339° |
| 2026-04-25 17:38 | 48.07579 | 16.59678 | 895 ft | 133 kts | 340° |
| 2026-04-25 17:38 | 48.08750 | 16.59192 | 677 ft | 131 kts | 339° |
| 2026-04-25 17:38 | 48.09599 | 16.58831 | 632 ft | 116 kts | 342° |
| 2026-04-25 17:39 | 48.10117 | 16.58604 | 619 ft | 35 kts | 345° |
| 2026-04-25 17:39 | 48.10302 | 16.58525 | 611 ft | 28 kts | 342° |
| 2026-04-25 17:39 | 48.10495 | 16.58442 | 610 ft | 31 kts | 345° |
| 2026-04-25 17:39 | 48.10704 | 16.58355 | 613 ft | 30 kts | 344° |
| 2026-04-25 17:40 | 48.10912 | 16.58269 | 612 ft | 33 kts | 344° |
| 2026-04-25 17:40 | 48.11158 | 16.58162 | 612 ft | 40 kts | 343° |
| 2026-04-25 17:40 | 48.11441 | 16.58040 | 610 ft | 43 kts | 345° |
| 2026-04-25 17:40 | 48.11689 | 16.57941 | 606 ft | 26 kts | 345° |
| 2026-04-25 17:41 | 48.11814 | 16.57874 | 602 ft | 17 kts | 308° |
| 2026-04-25 17:41 | 48.11861 | 16.57747 | 603 ft | 7 kts | 287° |
| 2026-04-25 17:41 | 48.11864 | 16.57683 | 603 ft | 0 kts | 260° |
| 2026-04-25 17:42 | 48.11861 | 16.57669 | 603 ft | 6 kts | 253° |
| 2026-04-25 17:42 | 48.11844 | 16.57587 | 603 ft | 10 kts | 252° |
| 2026-04-25 17:42 | 48.11828 | 16.57509 | 602 ft | 7 kts | 253° |
| 2026-04-25 17:42 | 48.11812 | 16.57427 | 602 ft | 9 kts | 255° |
| 2026-04-25 17:43 | 48.11817 | 16.57329 | 603 ft | 11 kts | 294° |
| 2026-04-25 17:43 | 48.11852 | 16.57221 | 602 ft | 11 kts | 301° |
| 2026-04-25 17:43 | 48.11891 | 16.57168 | 601 ft | 9 kts | 312° |
| 2026-04-25 17:43 | 48.11920 | 16.57088 | 600 ft | 6 kts | 296° |
| 2026-04-25 17:44 | 48.11942 | 16.57022 | 599 ft | 7 kts | 296° |
| 2026-04-25 17:44 | 48.11961 | 16.57016 | 599 ft | 2 kts | 24° |
| 2026-04-25 17:44 | 48.11969 | 16.57022 | 599 ft | 0 kts | 28° |
| 2026-04-25 17:44 | 48.11974 | 16.57026 | 599 ft | 1 kts | 28° |
| 2026-04-25 17:45 | 48.11977 | 16.57029 | 600 ft | 2 kts | 28° |
| 2026-04-25 17:45 | 48.11983 | 16.57034 | 600 ft | 3 kts | 28° |
| 2026-04-25 17:45 | 48.11994 | 16.57042 | 600 ft | 0 kts | 27° |